AGROMETEOROLOŠKI PORTAL

Vinorodna pokrajina

Temelj dobrega kmetovanja.

Pregled podatkov za lokacijo Elbl-2 DRSI, meteorološka postaja 82

Pregled senzorjev na lokaciji

ID Ime Zadnja
vrednost
Datum in čas
meritve
(lokalni čas)
Tip
senzorja
6185 Zračni tlak (hPa) 982 hPa 28.2.2024 00:30 DRSI
6182 Relativna zračna vlaga (2 m) (% RH) 100 % RH 28.2.2024 00:30 DRSI
6181 Temperatura (2 m) (°C) 9 °C 28.2.2024 00:30 DRSI
6184 Smer vetra (2 m) (°) 180 ° 28.2.2024 00:30 DRSI
6183 Hitrost vetra (2 m) (km/h) 6 km/h 28.2.2024 00:30 DRSI

Pregled podatkov zadnjih 24 ur

Zap.
št.
Datum in čas
(lokalni čas)
Elbl-2 DRSI
Zračni
tlak
Relativna
zračna
vlaga
(2
m)
Temperatura
(2
m)
Smer
vetra
(2
m)
Hitrost
vetra
(2
m)
1 28.2.2024 00:30 981,6 100 9 180 5,9
2 28.2.2024 00:00 981,6 100 9 112 7,9
3 27.2.2024 23:30 981,6 100 9 135 6
4 27.2.2024 23:00 981,6 100 9 112,3 4,9
5 27.2.2024 22:30 981,6 100 9 119,6 3,4
6 27.2.2024 22:00 981,6 100 9 146 3,6
7 27.2.2024 21:30 981,6 100 9 146 4
8 27.2.2024 21:00 981,6 100 9,5 135 4
9 27.2.2024 20:30 981 100 9,3 90 2
10 27.2.2024 20:00 980,7 100 10 180 4
11 27.2.2024 19:30 980,7 100 10 180 4,9
12 27.2.2024 19:00 979,7 100 11 2
13 27.2.2024 18:30 979,7 100 11 135 1,7
14 27.2.2024 18:00 979,7 100 11 0
15 27.2.2024 17:30 978,7 100 11 0
16 27.2.2024 17:00 978,7 100 11,7 180 1
17 27.2.2024 16:30 978,7 100 12 0
18 27.2.2024 16:00 978,4 100 12 112 1,3
19 27.2.2024 15:30 977,8 100 12 45 1,3
20 27.2.2024 15:00 977,8 100 12 45 1,3
21 27.2.2024 14:30 977,8 100 12 90 1,3
22 27.2.2024 14:00 977,8 100 12 90 4,3
23 27.2.2024 13:30 977,8 100 12 75,4 2,6
24 27.2.2024 13:00 978,1 100 12 135 3
25 27.2.2024 12:30 978,7 100 11 45 2,3
26 27.2.2024 12:00 978,7 100 11 112,5 4,2
27 27.2.2024 11:30 978,1 100 11 112,5 1,9
28 27.2.2024 11:00 977,8 100 11 22 2,6
29 27.2.2024 10:30 977,8 100 10,7 180 1,7
30 27.2.2024 10:00 977,8 100 9,3 4
31 27.2.2024 09:30 978,1 100 8,3 112 7
32 27.2.2024 09:00 978,7 100 6,7 125,5 3,6
33 27.2.2024 08:30 978,7 100 5 112 4
34 27.2.2024 08:00 978,7 100 5 97,3 4
35 27.2.2024 07:30 978,7 100 5,3 135 1,7
36 27.2.2024 07:00 978,7 100 6,7 180 4,6
37 27.2.2024 06:30 978,7 100 5,7 125,5 3,6
38 27.2.2024 06:00 977,8 100 5,3 90 3
39 27.2.2024 05:30 977,8 100 6,5 135 2,9
40 27.2.2024 05:00 977,8 100 6 112,5 3,6
41 27.2.2024 04:30 977,8 100 6 0
42 27.2.2024 04:00 977,8 100 7 123,5 2
43 27.2.2024 03:30 977,8 100 7,3 157,5 2,6
44 27.2.2024 03:00 977,5 100 7 119,6 3,6
45 27.2.2024 02:30 976,8 100 7 82,8 4
46 27.2.2024 02:00 976,8 100 8,3 0,4
47 27.2.2024 01:30 976,8 100 8,3 0,4
48 27.2.2024 01:00 976,8 100 8,7 45 1,7